• Join FlightAware (Why Join?)
  • Login
  • US Flag 
06:24AM EDT


 

Airport Tracker/Info


-or-


 

Live Flight TrackerFlight Track Log ✈ N414JK ✈ 03-Sep-2013 ✈ KTTN - KLNN

Flight Track Log - Related Links

Times and Time Zones

All times are in EDT time to prevent confusion due to time zone crossing. See the N414JK flight status page for this flight to view local times or setup timezone preferences in your user account.

Time Position Orientation Groundspeed Altitude Reporting Facility
EDT Latitude Longitude Course Direction KTS MPH feet Rate Location/Type
09:42AM 40.3000 -74.8500 310° West 150 173 1,400  Level Philadelphia TRACON
09:43AM 40.2833 -74.9000 246° West 131 151 2,300 720 Climbing Philadelphia TRACON
09:44AM 40.2833 -74.9500 270° West 128 147 3,000 600 Climbing Philadelphia TRACON
09:45AM 40.2833 -75.0000 270° West 128 147 3,600 600 Climbing Philadelphia TRACON
09:46AM 40.2833 -75.0333 270° West 134 154 4,200 600 Climbing Philadelphia TRACON
09:47AM 40.2667 -75.1000 252° West 133 153 4,900 360 Climbing Philadelphia TRACON
09:48AM 40.2667 -75.1500 270° West 159 183 5,000  Climbing Philadelphia TRACON
09:49AM 40.2667 -75.2167 270° West 161 185 5,000 60 Level Philadelphia TRACON
09:50AM 40.2500 -75.2667 246° West 160 184 5,200 360 Climbing Philadelphia TRACON
09:51AM 40.2486 -75.3286 268° West 153 176 5,800 420 Climbing New York Center
09:52AM 40.2428 -75.3719 260° West 148 170 6,200 540 Climbing New York Center
09:53AM 40.2406 -75.4233 267° West 137 158 7,000 600 Climbing New York Center
09:54AM 40.2325 -75.4692 257° West 137 158 7,500 540 Climbing New York Center
09:55AM 40.2289 -75.5122 264° West 137 158 8,100 600 Climbing New York Center
09:56AM 40.2250 -75.5556 263° West 132 152 8,700 600 Climbing New York Center
09:57AM 40.2464 -75.5925 307° West 121 139 9,400 660 Climbing New York Center
09:58AM 40.2717 -75.6322 310° West 127 146 10,100 600 Climbing New York Center
09:59AM 40.2953 -75.6692 310° West 133 153 10,700 600 Climbing New York Center
10:00AM 40.3189 -75.7036 312° West 133 153 11,400 600 Climbing New York Center
10:01AM 40.3406 -75.7350 312° West 133 153 11,900 540 Climbing New York Center
10:02AM 40.3639 -75.7750 307° West 133 153 12,500 600 Climbing New York Center
10:03AM 40.3806 -75.8197 296° West 128 147 13,200 600 Climbing New York Center
10:04AM 40.3911 -75.8642 287° West 128 147 13,800 600 Climbing New York Center
10:05AM 40.4019 -75.9058 289° West 128 147 14,400 600 Climbing New York Center
10:06AM 40.4142 -75.9586 287° West 133 153 15,000 540 Climbing New York Center
10:07AM 40.4250 -75.9975 290° West 133 153 15,600 540 Climbing New York Center
10:08AM 40.4372 -76.0503 287° West 138 159 16,100 180 Climbing New York Center
10:09AM 40.4475 -76.1000 285° West 151 174 16,000 -60 Descending New York Center
10:10AM 40.4597 -76.1528 287° West 151 174 16,000  Level New York Center
10:11AM 40.4736 -76.2142 287° West 156 180 16,000  Level New York Center
10:12AM 40.4878 -76.2669 289° West 156 180 16,000  Level New York Center
10:13AM 40.5017 -76.3256 287° West 162 186 16,000  Level New York Center
10:14AM 40.5119 -76.3756 285° West 162 186 16,000  Level New York Center
10:15AM 40.5239 -76.4311 286° West 162 186 16,000  Level New York Center
10:16AM 40.5397 -76.4925 289° West 167 192 16,000  Level New York Center
10:17AM 40.5517 -76.5481 286° West 167 192 16,000  Level New York Center
10:18AM 40.5636 -76.5983 287° West 167 192 16,000  Level New York Center
10:19AM 40.5775 -76.6567 287° West 167 192 16,000  Level New York Center
10:20AM 40.5931 -76.7183 288° West 167 192 16,000  Level New York Center
10:21AM 40.6031 -76.7683 285° West 167 192 16,000  Level New York Center
10:22AM 40.6167 -76.8269 287° West 167 192 16,000  Level New York Center
10:23AM 40.6306 -76.8856 287° West 167 192 16,000  Level New York Center
10:24AM 40.6422 -76.9386 286° West 167 192 16,000  Level New York Center
10:25AM 40.6558 -77.0000 286° West 167 192 16,000  Level New York Center
10:26AM 40.6678 -77.0506 287° West 167 192 16,000  Level New York Center
10:27AM 40.6789 -77.1117 284° West 167 192 16,000  Level New York Center
10:28AM 40.6925 -77.1678 288° West 167 192 16,000  Level New York Center
10:29AM 40.7058 -77.2292 286° West 167 192 16,000  Level New York Center
10:30AM 40.7194 -77.2853 288° West 167 192 16,000  Level New York Center
10:31AM 40.7333 -77.3358 290° West 167 192 16,100  Climbing New York Center
10:32AM 40.7469 -77.3919 288° West 167 192 16,100  Level New York Center
10:33AM 40.7603 -77.4508 287° West 167 192 16,100  Level New York Center
10:34AM 40.7694 -77.5094 282° West 167 192 16,100  Level New York Center
10:35AM 40.7828 -77.5683 287° West 167 192 16,100 -60 Level New York Center
10:40AM 40.8383 -77.8139 287° West 162 186 16,000 -60 Descending Cleveland Center
10:41AM 40.8503 -77.8736 285° West 162 186 16,000  Level Cleveland Center
10:42AM 40.8639 -77.9308 287° West 157 181 16,000  Level Cleveland Center
10:43AM 40.8758 -77.9881 285° West 152 175 16,000  Level Cleveland Center
10:44AM 40.8875 -78.0425 286° West 152 175 16,000  Level Cleveland Center
10:45AM 40.8992 -78.1025 284° West 158 182 16,000  Level Cleveland Center
10:46AM 40.9128 -78.1569 288° West 163 188 16,000  Level Cleveland Center
10:47AM 40.9244 -78.2197 284° West 163 188 16,000  Level Cleveland Center
10:48AM 40.9383 -78.2769 288° West 163 188 16,000  Level Cleveland Center
10:49AM 40.9497 -78.3342 285° West 163 188 16,000  Level Cleveland Center
10:50AM 40.9633 -78.3942 287° West 163 188 16,000  Level Cleveland Center
10:51AM 40.9769 -78.4517 287° West 163 188 16,000  Level Cleveland Center
10:52AM 40.9886 -78.5092 285° West 163 188 16,000  Level Cleveland Center
10:53AM 41.0019 -78.5636 288° West 163 188 16,000  Level Cleveland Center
10:54AM 41.0133 -78.6211 285° West 163 188 16,000  Level Cleveland Center
10:55AM 41.0247 -78.6786 285° West 163 188 16,000  Level Cleveland Center
10:56AM 41.0383 -78.7386 287° West 163 188 16,000  Level Cleveland Center
10:57AM 41.0497 -78.7933 285° West 163 188 16,000  Level Cleveland Center
10:58AM 41.0608 -78.8511 284° West 163 188 16,000  Level Cleveland Center
10:59AM 41.0722 -78.9058 285° West 163 188 16,000  Level Cleveland Center
11:00AM 41.0833 -78.9633 284° West 163 188 16,000  Level Cleveland Center
11:01AM 41.0967 -79.0181 288° West 163 188 16,000  Level Cleveland Center
11:02AM 41.1058 -79.0758 282° West 163 188 16,000  Level Cleveland Center
11:03AM 41.1189 -79.1278 288° West 163 188 16,000  Level Cleveland Center
11:04AM 41.1281 -79.1856 282° West 163 188 16,000  Level Cleveland Center
11:05AM 41.1411 -79.2403 288° West 163 188 16,000  Level Cleveland Center
11:06AM 41.1544 -79.2981 287° West 163 188 16,000  Level Cleveland Center
11:07AM 41.1656 -79.3531 285° West 163 188 16,000  Level Cleveland Center
11:08AM 41.1744 -79.4081 282° West 163 188 16,000  Level Cleveland Center
11:09AM 41.1875 -79.4628 288° West 163 188 16,000  Level Cleveland Center
11:10AM 41.2006 -79.5206 287° West 163 188 16,000  Level Cleveland Center
11:11AM 41.2114 -79.5783 284° West 163 188 16,000  Level Cleveland Center
11:12AM 41.2203 -79.6364 282° West 163 188 16,000  Level Cleveland Center
11:13AM 41.2311 -79.6942 284° West 163 188 16,000  Level Cleveland Center
11:14AM 41.2442 -79.7519 287° West 163 188 16,000  Level Cleveland Center
11:15AM 41.2550 -79.8097 284° West 163 188 16,000  Level Cleveland Center
11:16AM 41.2656 -79.8678 284° West 163 188 16,000 -60 Level Cleveland Center
11:17AM 41.2786 -79.9256 287° West 163 188 15,900 -60 Descending Cleveland Center
11:18AM 41.2892 -79.9861 283° West 163 188 15,900  Level Cleveland Center
11:19AM 41.3019 -80.0414 287° West 163 188 15,900 -120 Level Cleveland Center
11:20AM 41.3147 -80.1022 286° West 163 188 15,700 -420 Descending Cleveland Center
11:21AM 41.3256 -80.1656 283° West 163 188 15,100 -600 Descending Cleveland Center
11:22AM 41.3528 -80.2236 302° West 169 194 14,600 -600 Descending Cleveland Center
11:23AM 41.3822 -80.2786 306° West 174 200 14,000 -660 Descending Cleveland Center
11:24AM 41.3989 -80.3506 287° West 179 206 13,300 -600 Descending Cleveland Center
11:25AM 41.4117 -80.4142 285° West 190 219 12,900 -420 Descending Cleveland Center
11:26AM 41.4222 -80.4833 282° West 190 219 12,500 -420 Descending Cleveland Center
11:27AM 41.4306 -80.5389 281° West 185 213 12,100 -480 Descending Cleveland Center
11:28AM 41.4389 -80.6025 280° West 179 206 11,600 -720 Descending Cleveland Center
11:29AM 41.4472 -80.6717 279° West 184 212 10,700 -960 Descending Cleveland Center
11:29AM 41.4556 -80.7244 282° West 197 227 10,000 -1,020 Descending Cleveland Center
11:30AM 41.4636 -80.7661 284° West 193 222 9,400 -900 Descending Cleveland Center
11:31AM 41.4678 -80.8131 277° West 194 223 8,800 -1,020 Descending Cleveland Center
11:32AM 41.4758 -80.8825 279° West 194 223 7,700 -1,200 Descending Cleveland Center
11:33AM 41.4883 -80.9572 283° West 199 229 6,500 -1,140 Descending Cleveland Center
11:34AM 41.4964 -81.0267 279° West 199 229 5,500 -840 Descending Cleveland Center
11:35AM 41.5211 -81.0822 301° West 186 214 4,900 -780 Descending Cleveland Center
11:36AM 41.5603 -81.1547 306° West 165 190 3,700 -780 Descending Cleveland Center
11:37AM 41.5872 -81.2078 304° West 167 192 3,100 -300 Descending Cleveland Center
11:38AM 41.6100 -81.2525 304° West 138 159 3,100 -240 Level Cleveland Center
11:39AM 41.6347 -81.2972 306° West 149 171 2,700 -420 Descending Cleveland Center
11:41AM 41.6713 -81.3659 26° Northeast  Level Estimated
11:48AM 41.6833 -81.3833 26° Northeast  Level FlightAware Approximate
11:49AM 41.6840 -81.3897 26° Northeast  Level Estimated